Time;durP1;ratioP1;P1;durP2;ratioP2;P2;SDS_P1;SDS_P2;PMS_P1;PMS_P2;Temp;Humidity;BMP_temperature;BMP_pressure;BME280_temperature;BME280_humidity;BME280_pressure;Samples;Min_cycle;Max_cycle;Signal;HPM_P1;HPM_P2
2023/09/06 00:00:52;;;;;;;4.28;1.45;;;24.50;56.00;26.00;101745.00;;;;5090006;28;20209;-85
2023/09/06 00:03:27;;;;;;;1.42;1.15;;;24.50;56.20;26.00;101744.00;;;;5091126;28;20200;-86
2023/09/06 00:06:00;;;;;;;2.35;1.33;;;24.50;56.20;26.00;101746.00;;;;5090338;28;20255;-86
2023/09/06 00:08:27;;;;;;;1.83;1.40;;;24.50;56.30;26.10;101748.00;;;;5087693;28;20689;-86
2023/09/06 00:10:55;;;;;;;3.13;1.38;;;24.50;56.10;26.00;101752.00;;;;5089140;28;20194;-86
2023/09/06 00:13:22;;;;;;;1.90;1.58;;;24.40;56.00;26.00;101754.00;;;;5087915;28;20233;-86
2023/09/06 00:15:49;;;;;;;2.00;1.60;;;24.40;56.00;26.00;101743.00;;;;5091365;28;20190;-86
2023/09/06 00:18:16;;;;;;;1.63;1.45;;;24.40;56.60;26.00;101747.00;;;;5089534;28;20600;-86
2023/09/06 00:20:45;;;;;;;1.52;1.20;;;24.40;56.10;26.00;101748.00;;;;5089031;28;20198;-86
2023/09/06 00:23:13;;;;;;;7.35;1.23;;;24.40;56.20;26.00;101744.00;;;;5089687;28;20289;-86
2023/09/06 00:25:40;;;;;;;4.22;1.70;;;24.40;56.20;25.90;101742.00;;;;5079293;28;20879;-86
2023/09/06 00:28:07;;;;;;;1.90;1.48;;;24.30;56.20;25.90;101748.00;;;;5087859;28;20659;-86
2023/09/06 00:30:35;;;;;;;1.33;1.23;;;24.30;56.20;25.90;101745.00;;;;5078975;28;20214;-86
2023/09/06 00:33:06;;;;;;;1.80;1.25;;;24.30;56.30;25.90;101739.00;;;;5088961;28;20198;-85
2023/09/06 00:35:35;;;;;;;1.92;1.20;;;24.30;56.40;25.90;101740.00;;;;5089953;28;20226;-86
2023/09/06 00:38:06;;;;;;;2.42;1.52;;;24.30;56.40;25.90;101739.00;;;;5089333;28;20222;-86
2023/09/06 00:40:36;;;;;;;2.28;1.38;;;24.30;56.40;25.90;101736.00;;;;5070423;28;20559;-86
2023/09/06 00:43:05;;;;;;;1.67;1.20;;;24.20;56.30;25.80;101740.00;;;;5085437;28;20216;-86
2023/09/06 00:45:44;;;;;;;2.00;1.48;;;24.20;56.40;25.70;101736.00;;;;5084149;28;20244;-86
2023/09/06 00:48:15;;;;;;;2.90;1.35;;;24.20;56.50;25.80;101737.00;;;;5089243;28;20202;-86
2023/09/06 00:50:44;;;;;;;1.70;1.25;;;24.20;56.60;25.80;101733.00;;;;5088379;28;20198;-86
2023/09/06 00:53:14;;;;;;;1.65;1.30;;;24.20;56.60;25.70;101734.00;;;;5087867;28;20218;-86
2023/09/06 00:55:41;;;;;;;2.67;1.73;;;24.10;56.50;25.70;101725.00;;;;5089393;28;20195;-86
2023/09/06 00:58:10;;;;;;;3.65;1.88;;;24.10;56.60;25.70;101729.00;;;;5089683;28;20721;-86
2023/09/06 01:00:38;;;;;;;2.67;1.63;;;24.10;56.60;25.70;101726.00;;;;5089014;28;20205;-86
2023/09/06 01:03:05;;;;;;;1.80;1.45;;;24.10;56.60;25.70;101734.00;;;;5086853;28;20281;-85
2023/09/06 01:05:40;;;;;;;5.30;1.75;;;24.10;56.70;25.60;101737.00;;;;5081166;28;20263;-85
2023/09/06 01:08:14;;;;;;;3.53;1.95;;;24.00;56.70;25.60;101735.00;;;;5087433;28;20762;-85
2023/09/06 01:10:40;;;;;;;3.80;1.80;;;24.00;56.70;25.60;101735.00;;;;5089755;28;20205;-85
2023/09/06 01:13:08;;;;;;;1.75;1.33;;;24.00;56.80;25.60;101735.00;;;;5082952;28;20202;-85
2023/09/06 01:15:35;;;;;;;6.40;1.90;;;24.00;56.80;25.60;101742.00;;;;5081634;28;20214;-86
2023/09/06 01:18:06;;;;;;;2.20;1.83;;;23.90;56.80;25.50;101738.00;;;;5071939;28;20237;-85
2023/09/06 01:20:42;;;;;;;1.50;1.30;;;23.90;56.90;25.50;101733.00;;;;5080841;28;20275;-85
2023/09/06 01:23:33;;;;;;;1.95;1.60;;;23.90;56.90;25.40;101743.00;;;;5078380;28;20208;-85
2023/09/06 01:26:00;;;;;;;2.63;2.03;;;23.80;57.00;25.50;101732.00;;;;5079394;28;20588;-85
2023/09/06 01:28:27;;;;;;;3.08;2.00;;;23.80;56.90;25.50;101739.00;;;;5087445;28;20671;-86
2023/09/06 01:30:54;;;;;;;1.77;1.35;;;23.80;56.90;25.40;101750.00;;;;5088956;28;20708;-86
2023/09/06 01:33:22;;;;;;;2.97;1.95;;;23.80;57.00;25.40;101745.00;;;;5087711;28;20562;-85
2023/09/06 01:35:49;;;;;;;1.77;1.58;;;23.80;57.10;25.40;101744.00;;;;5088573;28;20209;-85
2023/09/06 01:38:16;;;;;;;1.98;1.65;;;23.70;57.10;25.40;101750.00;;;;5088043;28;20275;-86
2023/09/06 01:40:46;;;;;;;1.77;1.63;;;23.70;57.10;25.30;101731.00;;;;5086385;28;20194;-86
2023/09/06 01:43:14;;;;;;;1.60;1.50;;;23.70;57.20;25.30;101734.00;;;;5085375;28;20194;-86
2023/09/06 01:45:51;;;;;;;2.58;1.80;;;23.70;57.20;25.30;101739.00;;;;5088888;28;20573;-86
2023/09/06 01:48:18;;;;;;;1.88;1.58;;;23.70;57.30;25.30;101744.00;;;;5085752;28;20259;-86
2023/09/06 01:50:46;;;;;;;2.92;2.03;;;23.60;57.20;25.30;101744.00;;;;5069721;28;20229;-86
2023/09/06 01:53:14;;;;;;;2.08;1.88;;;23.60;57.40;25.30;101743.00;;;;5084984;28;20229;-86
2023/09/06 01:55:42;;;;;;;4.32;2.38;;;23.60;57.40;25.30;101747.00;;;;5081377;28;20251;-86
2023/09/06 01:58:12;;;;;;;3.83;1.60;;;23.60;57.40;25.20;101740.00;;;;5089074;28;20231;-85
2023/09/06 02:00:40;;;;;;;2.95;1.58;;;23.60;57.50;25.20;101742.00;;;;5088481;28;20194;-85
2023/09/06 02:03:09;;;;;;;3.95;1.80;;;23.60;57.50;25.20;101738.00;;;;5088496;28;20252;-86
2023/09/06 02:05:41;;;;;;;3.88;2.20;;;23.50;57.50;25.10;101745.00;;;;5089036;28;20684;-86
2023/09/06 02:08:08;;;;;;;2.28;1.50;;;23.50;57.50;25.20;101740.00;;;;5087157;28;20206;-85
2023/09/06 02:10:35;;;;;;;2.90;1.75;;;23.50;57.60;25.10;101744.00;;;;5084636;28;20198;-86
2023/09/06 02:13:02;;;;;;;2.20;1.98;;;23.50;57.60;25.10;101738.00;;;;5084371;28;20198;-86
2023/09/06 02:15:31;;;;;;;2.05;1.70;;;23.50;57.60;25.10;101742.00;;;;5088029;28;20199;-86
2023/09/06 02:17:58;;;;;;;3.38;2.17;;;23.50;57.70;25.10;101740.00;;;;5088651;28;20283;-85
2023/09/06 02:20:28;;;;;;;2.30;1.85;;;23.40;57.60;25.10;101744.00;;;;5087549;28;20194;-86
2023/09/06 02:22:56;;;;;;;3.70;2.38;;;23.40;57.70;25.10;101744.00;;;;5087748;28;20195;-86
2023/09/06 02:25:29;;;;;;;2.28;1.95;;;23.40;57.70;25.00;101745.00;;;;5083106;28;20199;-86
2023/09/06 02:27:56;;;;;;;2.67;1.88;;;23.40;57.70;25.00;101755.00;;;;5082337;28;20204;-86
2023/09/06 02:30:24;;;;;;;4.65;1.92;;;23.40;57.80;25.00;101749.00;;;;5080155;28;20195;-86
2023/09/06 02:32:52;;;;;;;5.07;2.25;;;23.40;57.80;25.00;101752.00;;;;5087597;28;20202;-86
2023/09/06 02:35:19;;;;;;;3.33;2.15;;;23.40;57.90;25.00;101758.00;;;;5087589;28;20199;-86
2023/09/06 02:37:47;;;;;;;2.25;2.05;;;23.30;57.90;25.00;101756.00;;;;5088326;28;20233;-86
2023/09/06 02:40:18;;;;;;;2.25;2.05;;;23.30;58.00;25.00;101756.00;;;;5086618;28;20256;-86
2023/09/06 02:42:51;;;;;;;2.90;2.53;;;23.30;57.90;25.00;101760.00;;;;5087444;28;20205;-86
2023/09/06 02:45:18;;;;;;;2.72;2.17;;;23.30;57.90;25.00;101765.00;;;;5079806;28;20198;-85
2023/09/06 02:47:49;;;;;;;2.00;1.70;;;23.30;58.00;24.90;101766.00;;;;5088973;28;20205;-85
2023/09/06 02:50:22;;;;;;;3.22;2.65;;;23.30;58.10;24.90;101759.00;;;;5087928;28;20198;-85
2023/09/06 02:52:52;;;;;;;2.25;2.05;;;23.20;58.00;24.90;101764.00;;;;5086577;28;20301;-86
2023/09/06 02:55:20;;;;;;;2.75;2.40;;;23.30;58.10;24.90;101763.00;;;;5087780;28;20186;-86
2023/09/06 02:57:49;;;;;;;4.65;2.70;;;23.20;58.00;24.90;101763.00;;;;5088578;28;20212;-85
2023/09/06 03:00:25;;;;;;;2.63;2.10;;;23.20;58.10;24.90;101767.00;;;;5088069;28;20190;-86
2023/09/06 03:02:54;;;;;;;2.50;2.00;;;23.20;58.10;24.80;101762.00;;;;5081774;28;20198;-86
2023/09/06 03:05:26;;;;;;;2.72;2.15;;;23.20;58.10;24.80;101768.00;;;;5086844;28;20296;-86
2023/09/06 03:07:55;;;;;;;2.47;2.05;;;23.20;58.20;24.80;101764.00;;;;5083437;28;20716;-86
2023/09/06 03:10:23;;;;;;;2.42;2.22;;;23.20;58.20;24.80;101765.00;;;;5087968;28;20285;-85
2023/09/06 03:12:55;;;;;;;2.75;2.15;;;23.10;58.20;24.70;101769.00;;;;5086517;28;20194;-85
2023/09/06 03:15:23;;;;;;;2.38;2.13;;;23.10;58.30;24.80;101762.00;;;;5088820;28;20587;-86
2023/09/06 03:17:51;;;;;;;5.13;2.50;;;23.10;58.30;24.70;101761.00;;;;5091062;28;20222;-86
2023/09/06 03:20:20;;;;;;;3.22;2.45;;;23.10;58.30;24.70;101763.00;;;;5081870;28;20206;-86
2023/09/06 03:22:50;;;;;;;2.53;2.13;;;23.10;58.30;24.70;101744.00;;;;5079882;28;20203;-84
2023/09/06 03:25:17;;;;;;;2.92;2.53;;;23.10;58.40;24.70;101764.00;;;;5088463;28;20699;-86
2023/09/06 03:27:45;;;;;;;4.07;2.70;;;23.10;58.40;24.70;101768.00;;;;5078644;28;20202;-86
2023/09/06 03:30:15;;;;;;;3.38;2.83;;;23.00;58.40;24.70;101765.00;;;;5079373;28;20193;-85
2023/09/06 03:32:43;;;;;;;2.45;2.25;;;23.00;58.40;24.70;101763.00;;;;5089630;28;20229;-86
2023/09/06 03:35:11;;;;;;;2.88;2.08;;;23.00;58.40;24.60;101767.00;;;;5087280;28;20225;-85
2023/09/06 03:37:41;;;;;;;2.58;2.30;;;23.00;58.40;24.60;101772.00;;;;5073296;28;20260;-86
2023/09/06 03:40:34;;;;;;;3.45;2.58;;;23.00;58.50;24.60;101771.00;;;;5091394;28;20275;-85
2023/09/06 03:43:05;;;;;;;4.57;3.08;;;22.90;58.50;24.60;101773.00;;;;5088985;28;20247;-86
2023/09/06 03:45:34;;;;;;;4.03;3.00;;;22.90;58.40;24.60;101775.00;;;;5092407;28;20622;-86
2023/09/06 03:48:04;;;;;;;2.90;2.55;;;22.90;58.40;24.50;101775.00;;;;5090594;28;20577;-85
2023/09/06 03:50:32;;;;;;;3.83;3.33;;;22.90;58.60;24.50;101772.00;;;;5090031;28;20203;-85
2023/09/06 03:52:59;;;;;;;3.08;2.63;;;22.90;58.60;24.50;101773.00;;;;5089191;28;20234;-86
2023/09/06 03:55:28;;;;;;;4.15;2.25;;;22.80;58.60;24.50;101771.00;;;;5091079;28;20206;-86
2023/09/06 03:57:55;;;;;;;2.97;2.30;;;22.80;58.70;24.50;101774.00;;;;5091234;28;20194;-85
2023/09/06 04:00:26;;;;;;;4.10;2.55;;;22.80;58.70;24.50;101776.00;;;;5090263;28;20209;-85
2023/09/06 04:02:54;;;;;;;2.53;2.33;;;22.80;58.70;24.40;101775.00;;;;5090051;28;20252;-85
2023/09/06 04:05:26;;;;;;;3.10;2.63;;;22.80;58.80;24.40;101778.00;;;;5090766;28;20248;-86
2023/09/06 04:07:56;;;;;;;3.80;2.75;;;22.80;58.80;24.40;101773.00;;;;5089114;28;20202;-85
2023/09/06 04:10:36;;;;;;;4.72;2.75;;;22.70;58.80;24.30;101776.00;;;;5088996;28;20199;-86
2023/09/06 04:13:05;;;;;;;4.28;2.72;;;22.70;58.90;24.40;101782.00;;;;5090443;28;20197;-86
2023/09/06 04:15:34;;;;;;;4.57;2.60;;;22.70;58.90;24.40;101781.00;;;;5090345;28;20202;-86
2023/09/06 04:18:04;;;;;;;8.50;3.17;;;22.70;58.90;24.30;101778.00;;;;5089899;28;20660;-85
2023/09/06 04:20:35;;;;;;;3.35;2.63;;;22.70;58.90;24.30;101784.00;;;;5088918;28;20201;-85
2023/09/06 04:23:04;;;;;;;5.68;2.67;;;22.70;58.90;24.30;101785.00;;;;5090553;28;20281;-86
2023/09/06 04:25:34;;;;;;;2.83;2.55;;;22.60;58.90;24.30;101787.00;;;;5090411;28;20760;-86
2023/09/06 04:28:07;;;;;;;3.92;3.20;;;22.70;59.10;24.30;101786.00;;;;5076469;28;20592;-85
2023/09/06 04:30:37;;;;;;;4.35;3.20;;;22.60;59.00;24.30;101794.00;;;;5089272;28;20293;-85
2023/09/06 04:33:05;;;;;;;2.83;2.53;;;22.60;59.10;24.30;101790.00;;;;5089296;28;20200;-85
2023/09/06 04:35:35;;;;;;;5.55;3.30;;;22.60;59.00;24.20;101786.00;;;;5085595;28;20747;-85
2023/09/06 04:38:03;;;;;;;3.63;2.55;;;22.60;59.10;24.20;101792.00;;;;5082665;28;20206;-84
2023/09/06 04:40:31;;;;;;;7.00;2.95;;;22.60;59.00;24.20;101782.00;;;;5088050;28;20240;-85
2023/09/06 04:42:59;;;;;;;4.40;3.33;;;22.60;59.10;24.20;101785.00;;;;5089942;28;20202;-85
2023/09/06 04:45:26;;;;;;;5.43;2.90;;;22.60;59.20;24.20;101795.00;;;;5090994;28;20201;-85
2023/09/06 04:47:54;;;;;;;4.15;2.95;;;22.50;59.20;24.20;101783.00;;;;5089387;28;20667;-85
2023/09/06 04:50:21;;;;;;;3.03;2.72;;;22.50;59.20;24.20;101794.00;;;;5089703;28;20232;-85
2023/09/06 04:52:50;;;;;;;2.95;2.65;;;22.50;59.30;24.20;101798.00;;;;5088642;28;20234;-85
2023/09/06 04:55:19;;;;;;;5.75;3.15;;;22.50;59.30;24.20;101798.00;;;;5089269;28;20615;-85
2023/09/06 04:57:49;;;;;;;3.40;3.10;;;22.50;59.30;24.10;101789.00;;;;5088641;28;20199;-85
2023/09/06 05:00:24;;;;;;;2.97;2.67;;;22.50;59.40;24.10;101796.00;;;;5086357;28;20751;-85
2023/09/06 05:02:52;;;;;;;4.47;3.63;;;22.50;59.40;24.10;101800.00;;;;5077391;28;20190;-85
2023/09/06 05:05:22;;;;;;;4.22;2.90;;;22.50;59.50;24.10;101801.00;;;;5085498;28;20222;-85
2023/09/06 05:07:49;;;;;;;2.75;2.40;;;22.50;59.50;24.10;101794.00;;;;5088720;28;20243;-85
2023/09/06 05:10:16;;;;;;;3.65;3.33;;;22.50;59.50;24.10;101797.00;;;;5086272;28;20202;-87
2023/09/06 05:12:43;;;;;;;4.50;3.20;;;22.40;59.50;24.10;101797.00;;;;5087174;28;20202;-87
2023/09/06 05:15:12;;;;;;;4.40;2.97;;;22.40;59.50;24.10;101802.00;;;;5088132;28;20194;-86
2023/09/06 05:17:40;;;;;;;3.63;3.33;;;22.40;59.60;24.10;101796.00;;;;5088939;28;20603;-86
2023/09/06 05:20:28;;;;;;;3.70;3.17;;;22.40;59.60;23.90;101805.00;;;;5088016;28;21037;-86
2023/09/06 05:22:57;;;;;;;4.38;2.75;;;22.40;60.10;24.10;101817.00;;;;5082851;28;20194;-87
2023/09/06 05:25:25;;;;;;;3.42;3.13;;;22.40;59.70;24.10;101808.00;;;;5087249;28;20194;-86
2023/09/06 05:27:55;;;;;;;7.25;3.45;;;22.40;59.70;24.00;101803.00;;;;5079620;28;20194;-86
2023/09/06 05:30:23;;;;;;;3.63;3.00;;;22.40;59.80;24.10;101807.00;;;;5086926;28;20198;-84
2023/09/06 05:32:50;;;;;;;5.93;3.42;;;22.40;59.80;24.10;101811.00;;;;5087375;28;20210;-86
2023/09/06 05:35:18;;;;;;;4.85;3.63;;;22.40;59.80;24.10;101818.00;;;;5081000;28;20191;-86
2023/09/06 05:37:44;;;;;;;3.75;2.97;;;22.40;59.80;24.10;101814.00;;;;5086490;28;20695;-85
2023/09/06 05:40:13;;;;;;;5.00;3.53;;;22.50;59.90;24.10;101816.00;;;;5088104;28;20237;-84
2023/09/06 05:42:40;;;;;;;5.55;3.67;;;22.40;59.80;24.10;101825.00;;;;5085944;28;20202;-85
2023/09/06 05:45:11;;;;;;;3.85;3.38;;;22.50;60.00;24.10;101824.00;;;;5086124;28;20697;-86
2023/09/06 05:47:40;;;;;;;6.40;3.45;;;22.50;60.10;24.20;101828.00;;;;5084323;28;20255;-83
2023/09/06 05:50:09;;;;;;;3.90;3.50;;;22.50;60.00;24.20;101827.00;;;;5085703;28;20206;-83
2023/09/06 05:52:40;;;;;;;6.82;3.28;;;22.50;60.10;24.20;101830.00;;;;5080974;28;20198;-85
2023/09/06 05:55:10;;;;;;;3.60;3.30;;;22.60;60.20;24.30;101841.00;;;;5088812;28;20198;-84
2023/09/06 05:57:38;;;;;;;4.30;3.90;;;22.60;60.10;24.30;101848.00;;;;5088038;28;20728;-85
2023/09/06 06:00:12;;;;;;;3.72;3.33;;;22.60;60.10;24.30;101837.00;;;;5088205;28;20214;-86
2023/09/06 06:02:41;;;;;;;3.70;2.97;;;22.60;60.00;24.30;101839.00;;;;5085507;28;20292;-86
2023/09/06 06:05:09;;;;;;;4.00;3.63;;;22.60;60.10;24.40;101843.00;;;;5085068;28;20210;-84
2023/09/06 06:07:36;;;;;;;3.28;2.90;;;22.70;60.20;24.40;101838.00;;;;5083982;28;20194;-87
2023/09/06 06:10:04;;;;;;;5.43;3.83;;;22.70;60.10;24.50;101841.00;;;;5084947;28;20578;-86
2023/09/06 06:12:32;;;;;;;6.93;4.20;;;22.80;60.20;24.50;101845.00;;;;5079630;28;20898;-86
2023/09/06 06:15:00;;;;;;;6.75;3.80;;;22.80;60.10;24.60;101839.00;;;;5075915;28;20680;-86
2023/09/06 06:17:28;;;;;;;5.55;3.85;;;22.90;60.10;24.60;101847.00;;;;5081056;28;20578;-87
2023/09/06 06:19:58;;;;;;;7.72;3.78;;;22.90;60.00;24.70;101847.00;;;;5086841;28;20226;-87
2023/09/06 06:22:28;;;;;;;5.18;4.28;;;23.00;60.10;24.70;101850.00;;;;5088277;28;20198;-86
2023/09/06 06:24:55;;;;;;;4.22;3.83;;;23.00;60.00;24.80;101848.00;;;;5080372;28;20205;-87
2023/09/06 06:27:22;;;;;;;4.50;4.05;;;23.10;60.00;24.90;101848.00;;;;5088562;28;20190;-86
2023/09/06 06:29:49;;;;;;;5.70;3.97;;;23.20;60.00;24.90;101854.00;;;;5087732;28;20579;-87
2023/09/06 06:32:16;;;;;;;4.30;3.65;;;23.20;59.90;25.00;101855.00;;;;5082674;28;20195;-87
2023/09/06 06:34:43;;;;;;;5.60;4.07;;;23.30;59.80;25.00;101853.00;;;;5087905;28;20656;-84
2023/09/06 06:37:12;;;;;;;5.65;4.13;;;23.30;59.70;25.00;101858.00;;;;5080754;28;20202;-83
2023/09/06 06:39:39;;;;;;;6.53;4.15;;;23.40;59.70;25.10;101856.00;;;;5089864;28;20222;-84
2023/09/06 06:42:06;;;;;;;5.32;4.35;;;23.40;59.70;25.20;101857.00;;;;5086712;28;20202;-84
2023/09/06 06:44:33;;;;;;;4.35;3.80;;;23.50;59.70;25.20;101855.00;;;;5087560;28;20208;-84
2023/09/06 06:47:01;;;;;;;5.05;3.92;;;23.50;60.20;25.30;101859.00;;;;5087835;28;20208;-84
2023/09/06 06:49:28;;;;;;;5.20;4.47;;;23.60;59.60;25.40;101859.00;;;;5086999;28;20205;-84
2023/09/06 06:51:55;;;;;;;6.32;4.28;;;23.70;59.60;25.50;101855.00;;;;5073685;28;20545;-82
2023/09/06 06:54:25;;;;;;;4.03;3.47;;;23.70;59.60;25.50;101872.00;;;;5077397;28;20244;-84
2023/09/06 06:56:52;;;;;;;15.00;4.35;;;23.80;59.60;25.60;101859.00;;;;5088381;28;20205;-84
2023/09/06 06:59:19;;;;;;;4.90;4.15;;;23.80;59.40;25.60;101861.00;;;;5088651;28;20229;-85
2023/09/06 07:01:47;;;;;;;5.13;4.38;;;24.00;59.50;25.70;101863.00;;;;5081841;28;20197;-84
2023/09/06 07:04:14;;;;;;;4.65;4.25;;;24.00;59.40;25.80;101873.00;;;;5080025;28;20280;-82
2023/09/06 07:06:41;;;;;;;5.00;4.10;;;24.10;59.40;25.90;101861.00;;;;5082825;28;20629;-85
2023/09/06 07:09:10;;;;;;;4.72;4.07;;;24.20;59.40;25.90;101869.00;;;;5087387;28;20190;-82
2023/09/06 07:11:38;;;;;;;4.35;3.95;;;24.20;59.30;26.00;101861.00;;;;5082741;28;20190;-85
2023/09/06 07:14:05;;;;;;;6.13;4.72;;;24.30;59.20;26.10;101864.00;;;;5087867;28;20212;-84
2023/09/06 07:16:33;;;;;;;5.57;4.03;;;24.40;59.20;26.10;101870.00;;;;5075378;28;20199;-83
2023/09/06 07:19:01;;;;;;;5.05;4.38;;;24.50;59.20;26.20;101865.00;;;;5086074;28;20198;-86
2023/09/06 07:21:28;;;;;;;4.82;4.40;;;24.50;59.10;26.30;101872.00;;;;5086978;28;20195;-86
2023/09/06 07:23:55;;;;;;;4.15;3.75;;;24.60;59.00;26.30;101883.00;;;;5079706;28;20297;-82
2023/09/06 07:26:22;;;;;;;4.45;3.88;;;24.70;59.00;26.40;101877.00;;;;5081763;28;20210;-82
2023/09/06 07:28:50;;;;;;;3.92;3.45;;;24.70;59.00;26.50;101882.00;;;;5084972;28;20186;-82
2023/09/06 07:31:18;;;;;;;7.28;3.50;;;24.80;59.00;26.60;101883.00;;;;5086784;28;20281;-83
2023/09/06 07:33:45;;;;;;;5.38;3.70;;;24.90;59.00;26.70;101869.00;;;;5087102;28;20251;-83
2023/09/06 07:36:13;;;;;;;4.82;4.43;;;24.90;58.90;26.70;101882.00;;;;5088472;28;20198;-83
2023/09/06 07:38:40;;;;;;;4.75;3.97;;;25.00;58.70;26.80;101882.00;;;;5086073;28;20244;-84
2023/09/06 07:41:08;;;;;;;4.15;3.75;;;25.10;58.60;26.90;101887.00;;;;5081401;28;20225;-84
2023/09/06 07:43:37;;;;;;;12.52;3.70;;;25.20;58.60;26.90;101890.00;;;;5083689;28;20191;-84
2023/09/06 07:46:09;;;;;;;6.15;4.22;;;25.30;58.60;27.00;101893.00;;;;5083429;28;20194;-83
2023/09/06 07:48:38;;;;;;;5.43;4.00;;;25.30;58.40;27.10;101889.00;;;;5083226;28;20209;-83
2023/09/06 07:51:06;;;;;;;4.20;3.80;;;25.40;58.50;27.20;101894.00;;;;5088385;28;20473;-83
2023/09/06 07:53:33;;;;;;;4.43;3.55;;;25.50;58.60;27.30;101897.00;;;;5087291;28;20256;-84
2023/09/06 07:56:00;;;;;;;4.03;3.63;;;25.60;58.70;27.40;101895.00;;;;5078344;28;20206;-85
2023/09/06 07:58:28;;;;;;;4.88;4.10;;;25.70;58.60;27.50;101895.00;;;;5087685;28;20206;-85
2023/09/06 08:00:55;;;;;;;7.32;3.70;;;25.80;58.40;27.60;101890.00;;;;5087899;28;20230;-86
2023/09/06 08:03:26;;;;;;;4.57;3.38;;;25.90;58.40;27.60;101892.00;;;;5087683;28;20194;-87
2023/09/06 08:05:53;;;;;;;3.53;3.20;;;25.90;58.10;27.70;101901.00;;;;5089400;28;20225;-86
2023/09/06 08:08:20;;;;;;;4.68;3.75;;;26.00;58.60;27.80;101906.00;;;;5087420;28;20203;-86
2023/09/06 08:10:48;;;;;;;4.63;3.50;;;26.10;58.10;27.90;101900.00;;;;5085901;28;20217;-88
2023/09/06 08:13:22;;;;;;;4.20;3.72;;;26.20;58.10;27.90;101898.00;;;;5086260;28;20190;-88
2023/09/06 08:15:49;;;;;;;4.05;3.45;;;26.30;57.90;28.10;101907.00;;;;5087770;28;20202;-87
2023/09/06 08:18:16;;;;;;;3.65;2.83;;;26.40;57.90;28.10;101902.00;;;;5085936;28;20201;-86
2023/09/06 08:20:45;;;;;;;3.92;3.38;;;26.50;57.90;28.20;101906.00;;;;5083125;28;20692;-85
2023/09/06 08:23:13;;;;;;;5.65;3.53;;;26.50;57.80;28.30;101905.00;;;;5088844;28;20679;-84
2023/09/06 08:25:40;;;;;;;3.67;2.97;;;26.70;57.80;28.50;101910.00;;;;5080481;28;20867;-87
2023/09/06 08:28:08;;;;;;;6.53;3.35;;;26.70;57.80;28.50;101911.00;;;;5085896;28;20578;-86
2023/09/06 08:30:35;;;;;;;4.35;3.55;;;26.90;57.80;28.60;101915.00;;;;5089346;28;20200;-86
2023/09/06 08:33:08;;;;;;;3.42;3.05;;;26.90;57.70;28.70;101917.00;;;;5078244;28;20202;-89
2023/09/06 08:35:35;;;;;;;3.72;3.00;;;27.00;57.40;28.80;101919.00;;;;5087915;28;20202;-87
2023/09/06 08:38:03;;;;;;;3.75;2.92;;;27.20;57.60;28.90;101921.00;;;;5078376;28;20202;-86
2023/09/06 08:40:31;;;;;;;3.25;2.78;;;27.20;57.30;29.00;101919.00;;;;5078501;28;20222;-86
2023/09/06 08:43:04;;;;;;;3.63;3.00;;;27.30;57.40;29.10;101920.00;;;;5085989;28;20207;-85
2023/09/06 08:45:32;;;;;;;4.00;2.67;;;27.50;57.20;29.20;101929.00;;;;5075303;28;20199;-84
2023/09/06 08:48:00;;;;;;;3.40;3.10;;;27.60;57.20;29.30;101925.00;;;;5078911;28;20232;-86
2023/09/06 08:50:28;;;;;;;4.15;3.30;;;27.60;57.00;29.40;101928.00;;;;5079530;28;20661;-85
2023/09/06 08:52:57;;;;;;;3.20;2.90;;;27.80;56.80;29.50;101922.00;;;;5080356;28;20303;-83
2023/09/06 08:55:27;;;;;;;3.88;3.47;;;27.90;56.50;29.60;101924.00;;;;5082986;28;20664;-86
2023/09/06 08:57:56;;;;;;;5.00;3.20;;;27.90;56.20;29.70;101924.00;;;;5087024;28;20194;-86
2023/09/06 09:00:23;;;;;;;5.35;3.03;;;28.00;56.30;29.80;101922.00;;;;5085173;28;20233;-87
2023/09/06 09:02:51;;;;;;;5.57;2.92;;;28.10;56.10;29.80;101924.00;;;;5082534;28;20191;-86
2023/09/06 09:05:22;;;;;;;3.70;3.10;;;28.30;56.20;29.90;101911.00;;;;5087410;28;20221;-88
2023/09/06 09:07:56;;;;;;;3.38;3.03;;;28.40;56.00;30.00;101914.00;;;;5080776;28;20191;-86
2023/09/06 09:10:26;;;;;;;4.15;3.70;;;28.40;56.00;30.10;101917.00;;;;5084764;28;20194;-86
2023/09/06 09:12:56;;;;;;;2.78;2.28;;;28.50;55.70;30.20;101920.00;;;;5079381;28;20219;-85
2023/09/06 09:15:25;;;;;;;5.70;3.05;;;28.70;55.80;30.30;101922.00;;;;5075871;28;20583;-86
2023/09/06 09:17:53;;;;;;;3.03;2.65;;;28.70;55.70;30.50;101923.00;;;;5079148;28;20198;-85
2023/09/06 09:20:21;;;;;;;3.65;2.97;;;28.90;55.50;30.50;101924.00;;;;5079054;28;20226;-86
2023/09/06 09:22:50;;;;;;;3.65;2.65;;;29.00;55.30;30.70;101928.00;;;;5074373;28;20190;-86
2023/09/06 09:25:23;;;;;;;3.30;2.55;;;29.10;55.10;30.70;101922.00;;;;5073482;28;20203;-85
2023/09/06 09:27:55;;;;;;;2.90;2.47;;;29.20;55.10;30.90;101921.00;;;;5077389;28;20213;-87
2023/09/06 09:30:24;;;;;;;3.22;2.47;;;29.30;55.00;31.00;101923.00;;;;5074610;28;20199;-88
2023/09/06 09:32:59;;;;;;;2.50;2.30;;;29.40;54.90;31.00;101923.00;;;;5077208;28;20194;-85
2023/09/06 09:35:27;;;;;;;5.63;2.58;;;29.50;54.70;31.10;101909.00;;;;5077219;28;20205;-84
2023/09/06 09:37:56;;;;;;;2.72;1.98;;;29.60;54.50;31.20;101922.00;;;;5079620;28;20190;-83
2023/09/06 09:40:32;;;;;;;4.32;2.55;;;29.70;54.30;31.20;101924.00;;;;5082816;28;20215;-82
2023/09/06 09:43:02;;;;;;;2.10;1.90;;;29.80;54.00;31.30;101924.00;;;;5085674;28;20217;-82
2023/09/06 09:45:40;;;;;;;3.85;2.30;;;29.90;53.80;31.40;101930.00;;;;5080593;28;20259;-81
2023/09/06 09:48:10;;;;;;;2.97;1.60;;;30.00;54.30;31.50;101926.00;;;;5087531;28;20580;-81
2023/09/06 09:50:41;;;;;;;4.28;2.45;;;30.10;53.50;31.60;101921.00;;;;5077020;28;20198;-83
2023/09/06 09:53:10;;;;;;;2.47;2.25;;;30.20;53.50;31.70;101924.00;;;;5076216;28;20252;-83
2023/09/06 09:55:47;;;;;;;3.22;2.40;;;30.30;53.50;31.70;101925.00;;;;5078411;28;20197;-83
2023/09/06 09:58:18;;;;;;;2.60;2.15;;;30.30;53.30;31.90;101920.00;;;;5084411;28;20205;-84
2023/09/06 10:00:45;;;;;;;2.03;1.80;;;30.50;53.60;32.10;101927.00;;;;5073941;28;20255;-86
2023/09/06 10:03:14;;;;;;;6.60;1.70;;;30.60;53.60;32.20;101921.00;;;;5082952;28;20332;-85
2023/09/06 10:05:45;;;;;;;2.40;2.15;;;30.70;53.60;32.30;101926.00;;;;5084282;28;20229;-86
2023/09/06 10:08:20;;;;;;;2.75;1.80;;;30.80;53.30;32.40;101916.00;;;;5082877;28;20202;-87
2023/09/06 10:10:47;;;;;;;9.10;2.28;;;31.00;53.30;32.60;101919.00;;;;5069220;28;20241;-86
2023/09/06 10:13:16;;;;;;;2.60;2.13;;;31.10;53.10;32.70;101918.00;;;;5068348;28;20207;-84
2023/09/06 10:15:45;;;;;;;2.40;1.95;;;31.20;52.70;32.80;101922.00;;;;5071581;28;20200;-85
2023/09/06 10:18:13;;;;;;;2.35;2.15;;;31.30;52.70;32.90;101918.00;;;;5085996;28;20193;-86
2023/09/06 10:20:41;;;;;;;2.63;2.10;;;31.40;52.40;33.00;101923.00;;;;5087326;28;20244;-86
2023/09/06 10:23:08;;;;;;;3.67;2.13;;;31.60;52.10;33.10;101919.00;;;;5079396;28;20539;-86
2023/09/06 10:25:40;;;;;;;2.50;1.83;;;31.70;52.20;33.10;101916.00;;;;5053265;28;20202;-86
2023/09/06 10:28:08;;;;;;;4.97;2.25;;;31.70;51.90;33.20;101914.00;;;;5072902;28;20194;-86
2023/09/06 10:30:44;;;;;;;2.92;2.17;;;31.80;52.10;33.30;101915.00;;;;5087948;28;20720;-85
2023/09/06 10:33:11;;;;;;;2.63;2.00;;;32.00;51.50;33.40;101908.00;;;;5087266;28;20193;-83
2023/09/06 10:35:43;;;;;;;3.03;1.75;;;32.00;51.80;33.50;101916.00;;;;5083160;28;20194;-82
2023/09/06 10:38:14;;;;;;;3.55;2.03;;;32.10;51.30;33.60;101890.00;;;;5087433;28;20198;-83
2023/09/06 10:41:09;;;;;;;2.75;2.10;;;32.20;51.20;33.60;101909.00;;;;5090416;28;20232;-83
2023/09/06 10:44:03;;;;;;;2.33;1.83;;;32.30;50.20;33.60;101911.00;;;;5091926;28;20199;-82
2023/09/06 10:46:33;;;;;;;2.78;2.05;;;32.40;50.20;33.80;101907.00;;;;5091184;28;20217;-83
2023/09/06 10:49:22;;;;;;;3.25;2.38;;;32.50;50.50;33.70;101915.00;;;;5090584;28;20278;-82
2023/09/06 10:52:01;;;;;;;3.65;2.00;;;32.60;49.50;33.80;101904.00;;;;5073553;28;20238;-83
2023/09/06 10:54:38;;;;;;;4.57;2.20;;;32.60;49.50;33.90;101901.00;;;;5082459;28;20226;-83
2023/09/06 10:57:08;;;;;;;8.18;2.28;;;32.70;49.80;34.00;101902.00;;;;5085198;28;20237;-84